Terminal Aerodrome Forecast
Issued by NWS

Home | Current Version | Previous Version | Graphics & Text | Print | Product List | Glossary On
Versions: 1 2 3 4 5 6 7 8 9 10 11 12 13
554
FTUS43 KICT 211735
TAFSLN
TAF
KSLN 211735Z 2118/2218 05016G24KT P6SM VCSH SCT060
     FM212200 02015G23KT 5SM -RA OVC015
     FM220600 01016G23KT P6SM BKN015
     FM220900 36010KT P6SM SCT100=

USA.gov is the U.S. government's official web portal to all federal, state and local government web resources and services.